Flight Track Log - Related Links

Times and Time Zones

All times are in EDT time to prevent confusion due to time zone crossing. See the EJA922 flight status page for this flight to view local times or setup timezone preferences in your user account.

Time Position Orientation Groundspeed Altitude Reporting Facility
EDT Latitude Longitude Course Direction KTS MPH feet Rate Location/Type
Fri 02:06:26 AM 34.1472 -118.4144 238° Southwest 212 244 5,500  Level Los Angeles Center
Fri 02:07:27 AM 34.1931 -118.4569 323° Northwest 215 247 8,100 2,607 Climbing Los Angeles Center
Fri 02:08:28 AM 34.2589 -118.5000 332° Northwest 264 304 10,800 2,628 Climbing Los Angeles Center
Fri 02:09:28 AM 34.3336 -118.5492 331° Northwest 303 349 13,400 2,628 Climbing Los Angeles Center
Fri 02:10:29 AM 34.4183 -118.6031 332° Northwest 341 392 16,100 2,607 Climbing Los Angeles Center
Fri 02:11:30 AM 34.5050 -118.6622 331° Northwest 356 410 18,700 2,311 Climbing Los Angeles Center
Fri 02:12:31 AM 34.5972 -118.7225 332° Northwest 376 433 20,800 2,164 Climbing Los Angeles Center
Fri 02:13:32 AM 34.6911 -118.7858 331° Northwest 385 443 23,100 2,281 Climbing Los Angeles Center
Fri 02:14:32 AM 34.7883 -118.8517 331° Northwest 394 453 25,400 2,430 Climbing Los Angeles Center
Fri 02:15:33 AM 34.8972 -118.9514 323° Northwest 404 465 28,000 1,279 Climbing Los Angeles Center
Fri 02:16:34 AM 34.9872 -119.0397 321° Northwest 432 497 28,000  Level Los Angeles Center
Fri 02:17:35 AM 35.0917 -119.1431 321° Northwest 471 542 28,000  Level Los Angeles Center
Fri 02:18:35 AM 35.2019 -119.2489 322° Northwest 500 575 28,000  Level Los Angeles Center
Fri 02:19:36 AM 35.3097 -119.3547 321° Northwest 501 577 28,000  Level Los Angeles Center
Fri 02:20:37 AM 35.4178 -119.4631 321° Northwest 502 578 28,000  Level Los Angeles Center
Fri 02:21:37 AM 35.5264 -119.5703 321° Northwest 503 579 28,000  Level Los Angeles Center
Fri 02:22:28 AM 35.6333 -119.6772 321° Northwest 504 580 28,000  Level Oakland Center
Fri 02:23:29 AM 35.7422 -119.7861 321° Northwest 505 581 28,000  Level Oakland Center
Fri 02:24:29 AM 35.8508 -119.8958 321° Northwest 508 585 28,000  Level Oakland Center
Fri 02:25:30 AM 35.9594 -120.0053 321° Northwest 508 585 28,000  Level Oakland Center
Fri 02:26:30 AM 36.0681 -120.1144 321° Northwest 508 585 28,000  Level Oakland Center
Fri 02:27:31 AM 36.1775 -120.2264 320° Northwest 509 586 28,000  Level Oakland Center
Fri 02:28:31 AM 36.2872 -120.3378 321° Northwest 510 587 28,000  Level Oakland Center
Fri 02:29:32 AM 36.3961 -120.4489 321° Northwest 510 587 28,000 -50 Level Oakland Center
Fri 02:30:32 AM 36.5053 -120.5633 320° Northwest 512 589 27,900 -744 Descending Oakland Center
Fri 02:31:33 AM 36.6108 -120.6722 320° Northwest 497 572 26,500 -1,934 Descending Oakland Center
Fri 02:32:33 AM 36.7125 -120.7753 321° Northwest 475 547 24,000 -2,529 Descending Oakland Center
Fri 02:33:34 AM 36.8044 -120.8819 317° Northwest 458 527 21,400 -1,983 Descending Oakland Center
Fri 02:34:34 AM 36.8953 -120.9850 318° Northwest 448 516 20,000 -1,587 Descending Oakland Center
Fri 02:35:35 AM 36.9822 -121.0881 317° Northwest 436 502 18,200 -1,983 Descending Oakland Center
Fri 02:36:35 AM 37.0664 -121.1839 318° Northwest 412 474 16,000 -2,033 Descending Oakland Center
Fri 02:37:36 AM 37.1478 -121.2786 317° Northwest 409 471 14,100 -1,835 Descending Oakland Center
Fri 02:38:36 AM 37.2153 -121.3564 317° Northwest 341 392 12,300 -1,686 Descending Oakland Center
Fri 02:39:37 AM 37.2783 -121.4292 317° Northwest 315 362 10,700 -1,587 Descending Oakland Center
Fri 02:40:37 AM 37.3367 -121.4953 318° Northwest 291 335 9,100 -1,550 Descending Oakland Center
Fri 02:41:37 AM 37.3922 -121.5633 316° Northwest 284 327 7,600 -1,537 Descending Oakland Center
Fri 02:42:38 AM 37.4411 -121.6522 305° West 269 310 6,000 -793 Descending Oakland Center
Fri 02:43:38 AM 37.4767 -121.7300 300° West 260 299 6,000 -496 Level Oakland Center
Fri 02:44:39 AM 37.5172 -121.8069 304° West 260 299 5,000 -496 Descending Oakland Center
Fri 02:45:39 AM 37.5547 -121.8822 302° West 260 299 5,000 -149 Level Oakland Center
Fri 02:46:40 AM 37.5906 -121.9550 302° West 252 290 4,700 -1,140 Descending Oakland Center
Fri 02:47:40 AM 37.6267 -122.0119 309° West 220 253 2,700 -1,300 Descending Oakland Center
Fri 02:48:40 AM 37.6567 -122.0575 310° West 192 221 2,100 -397 Descending Oakland Center
Fri 02:49:41 AM 37.6844 -122.0992 310° West 170 196 1,900 -500 Descending Oakland Center
Fri 02:51:04 AM 37.7167 -122.1500 309° West 129 148 900 -685 Descending Northern Cal TRACON
Fri 02:52:10 AM 37.7167 -122.2000 270° West 127 146 200 -636 Descending Northern Cal TRACON
Fri 02:54:00 AM 37.7167 -122.2167 270° West  Level FlightAware Approximate
Fri 03:01:00 AM 37.7228 -122.2215 270° West  Level Estimated

Login

Don't have an account? Register now (free) for customized features, flight alerts, and more!